Time;durP1;ratioP1;P1;durP2;ratioP2;P2;SDS_P1;SDS_P2;PMS_P1;PMS_P2;Temp;Humidity;BMP_temperature;BMP_pressure;BME280_temperature;BME280_humidity;BME280_pressure;Samples;Min_cycle;Max_cycle;Signal;HPM_P1;HPM_P2
2022/08/20 00:01:06;;;;;;;53.83;24.52;;;;;;;18.97;100.00;96164.78;5054720;28;20191;-89
2022/08/20 00:03:35;;;;;;;56.25;23.73;;;;;;;18.94;100.00;96161.78;5054454;28;20201;-89
2022/08/20 00:06:06;;;;;;;50.30;23.00;;;;;;;19.04;100.00;96157.50;5054510;28;20232;-88
2022/08/20 00:08:33;;;;;;;46.30;22.30;;;;;;;18.88;100.00;96164.56;5054082;28;20189;-88
2022/08/20 00:11:01;;;;;;;52.45;24.10;;;;;;;18.92;100.00;96168.41;5053908;28;20655;-88
2022/08/20 00:13:30;;;;;;;48.83;23.08;;;;;;;18.95;100.00;96161.56;5054249;28;20221;-88
2022/08/20 00:15:58;;;;;;;43.35;21.17;;;;;;;18.85;100.00;96165.00;5054331;28;20225;-88
2022/08/20 00:18:24;;;;;;;43.00;21.25;;;;;;;18.78;100.00;96157.09;5054206;28;20300;-88
2022/08/20 00:20:54;;;;;;;42.83;21.45;;;;;;;18.95;100.00;96160.72;5053729;28;20244;-88
2022/08/20 00:23:22;;;;;;;41.38;21.05;;;;;;;18.96;100.00;96165.88;5053965;28;20181;-89
2022/08/20 00:25:49;;;;;;;42.88;21.83;;;;;;;18.83;100.00;96170.59;5053993;28;20276;-88
2022/08/20 00:28:16;;;;;;;40.70;20.27;;;;;;;18.81;100.00;96169.97;5054091;28;20201;-88
2022/08/20 00:30:45;;;;;;;47.35;21.52;;;;;;;18.95;100.00;96176.75;5053681;28;20212;-88
2022/08/20 00:33:14;;;;;;;42.08;20.88;;;;;;;18.96;100.00;96181.88;5053633;28;20217;-90
2022/08/20 00:35:48;;;;;;;41.45;20.60;;;;;;;18.98;100.00;96174.44;5053772;28;20217;-90
2022/08/20 00:38:14;;;;;;;41.28;19.88;;;;;;;18.80;100.00;96168.38;5053649;28;20188;-89
2022/08/20 00:40:44;;;;;;;39.53;19.90;;;;;;;18.92;100.00;96174.56;5053708;28;20658;-89
2022/08/20 00:43:27;;;;;;;37.88;19.05;;;;;;;18.98;100.00;96178.97;5053684;28;20627;-89
2022/08/20 00:45:56;;;;;;;39.33;19.52;;;;;;;18.81;100.00;96178.00;5053626;28;20225;-88
2022/08/20 00:48:24;;;;;;;38.78;18.98;;;;;;;18.81;100.00;96177.19;5053836;28;20300;-88
2022/08/20 00:50:50;;;;;;;38.47;18.90;;;;;;;18.78;100.00;96181.13;5053948;28;20209;-88
2022/08/20 00:53:19;;;;;;;39.10;19.33;;;;;;;18.67;100.00;96184.59;5053899;28;20221;-88
2022/08/20 00:55:47;;;;;;;40.22;20.02;;;;;;;18.77;100.00;96190.19;5054130;28;20312;-88
2022/08/20 00:58:14;;;;;;;36.17;17.77;;;;;;;18.72;100.00;96190.03;5053821;28;20557;-88
2022/08/20 01:00:44;;;;;;;37.92;19.75;;;;;;;18.78;100.00;96183.00;5053805;28;20225;-89
2022/08/20 01:03:15;;;;;;;40.85;18.20;;;;;;;18.78;100.00;96178.47;5054440;28;20630;-89
2022/08/20 01:05:44;;;;;;;36.33;17.95;;;;;;;18.72;100.00;96189.25;5053892;28;20249;-88
2022/08/20 01:08:11;;;;;;;42.97;20.17;;;;;;;18.80;100.00;96183.56;5054058;28;20247;-88
2022/08/20 01:10:41;;;;;;;35.22;17.98;;;;;;;18.84;100.00;96193.56;5053704;28;20295;-88
2022/08/20 01:13:12;;;;;;;35.72;18.45;;;;;;;18.74;100.00;96179.97;5053312;28;20227;-88
2022/08/20 01:15:41;;;;;;;32.90;17.73;;;;;;;18.77;100.00;96192.03;5053259;28;20642;-88
2022/08/20 01:18:11;;;;;;;33.15;18.08;;;;;;;18.84;100.00;96182.91;5053148;28;20735;-88
2022/08/20 01:20:42;;;;;;;36.08;17.55;;;;;;;18.83;100.00;96185.81;5053348;28;20322;-88
2022/08/20 01:23:33;;;;;;;39.17;18.33;;;;;;;18.80;100.00;96180.91;5053058;28;20186;-88
2022/08/20 01:26:05;;;;;;;34.97;18.45;;;;;;;18.81;100.00;96188.69;5053030;28;20217;-89
2022/08/20 01:28:38;;;;;;;37.85;17.25;;;;;;;18.82;100.00;96187.63;5052935;28;20236;-89
2022/08/20 01:31:06;;;;;;;35.30;17.98;;;;;;;18.73;100.00;96190.88;5052846;28;20272;-88
2022/08/20 01:33:33;;;;;;;33.70;15.95;;;;;;;18.77;100.00;96184.84;5052628;28;20718;-87
2022/08/20 01:36:00;;;;;;;30.15;15.18;;;;;;;18.70;100.00;96189.47;5052764;28;20728;-87
2022/08/20 01:38:27;;;;;;;31.77;16.45;;;;;;;18.72;100.00;96179.38;5052693;28;20704;-88
2022/08/20 01:41:12;;;;;;;31.10;15.48;;;;;;;18.87;100.00;96182.44;5052515;28;20781;-87
2022/08/20 01:43:40;;;;;;;30.85;16.35;;;;;;;18.69;100.00;96179.84;5052346;28;20706;-86
2022/08/20 01:46:09;;;;;;;32.60;16.52;;;;;;;18.74;100.00;96187.19;5052599;28;20219;-87
2022/08/20 01:48:36;;;;;;;29.83;14.88;;;;;;;18.75;100.00;96175.44;5052513;28;20681;-87
2022/08/20 01:51:07;;;;;;;31.45;15.95;;;;;;;18.73;100.00;96186.34;5052875;28;20282;-87
2022/08/20 01:53:37;;;;;;;27.55;15.55;;;;;;;18.82;100.00;96184.97;5052784;28;20216;-87
2022/08/20 01:56:08;;;;;;;31.80;15.85;;;;;;;18.77;100.00;96187.50;5052717;28;20568;-87
2022/08/20 01:58:38;;;;;;;31.02;15.75;;;;;;;18.85;100.00;96192.53;5052531;28;20192;-87
2022/08/20 02:01:06;;;;;;;30.75;15.05;;;;;;;18.67;100.00;96181.94;5052980;28;20181;-87
2022/08/20 02:03:32;;;;;;;31.42;15.90;;;;;;;18.65;100.00;96192.00;5052150;28;20215;-87
2022/08/20 02:05:59;;;;;;;33.05;15.77;;;;;;;18.68;100.00;96188.06;5052251;28;20752;-88
2022/08/20 02:08:26;;;;;;;28.33;15.07;;;;;;;18.62;100.00;96192.47;5052653;28;20617;-88
2022/08/20 02:10:54;;;;;;;30.00;14.65;;;;;;;18.65;100.00;96197.34;5052267;28;20667;-87
2022/08/20 02:13:23;;;;;;;30.77;15.40;;;;;;;18.74;100.00;96198.66;5051868;28;20217;-87
2022/08/20 02:15:50;;;;;;;29.70;15.52;;;;;;;18.71;100.00;96204.47;5052119;28;20225;-87
2022/08/20 02:18:16;;;;;;;31.60;15.20;;;;;;;18.55;100.00;96202.41;5052171;28;20201;-88
2022/08/20 02:20:44;;;;;;;28.25;15.05;;;;;;;18.61;100.00;96198.84;5052370;28;20212;-87
2022/08/20 02:23:14;;;;;;;27.33;14.82;;;;;;;18.69;100.00;96201.19;5052893;28;20201;-87
2022/08/20 02:25:42;;;;;;;29.40;14.65;;;;;;;18.73;100.00;96199.69;5052320;28;20213;-87
2022/08/20 02:28:12;;;;;;;31.63;14.88;;;;;;;18.80;100.00;96200.44;5052371;28;20780;-87
2022/08/20 02:30:45;;;;;;;27.55;14.57;;;;;;;18.73;100.00;96205.03;5052187;28;20296;-88
2022/08/20 02:33:14;;;;;;;33.78;15.23;;;;;;;18.77;100.00;96202.72;5052115;28;20232;-88
2022/08/20 02:35:43;;;;;;;26.00;12.95;;;;;;;18.54;100.00;96197.31;5052373;28;20623;-88
2022/08/20 02:38:10;;;;;;;30.10;14.25;;;;;;;18.55;100.00;96191.75;5051922;28;20275;-87
2022/08/20 02:40:37;;;;;;;29.13;14.30;;;;;;;18.65;100.00;96194.69;5052546;28;20284;-87
2022/08/20 02:43:05;;;;;;;24.70;13.93;;;;;;;18.67;100.00;96197.94;5052183;28;20292;-87
2022/08/20 02:45:42;;;;;;;28.15;14.18;;;;;;;18.66;100.00;96196.31;5054173;28;20221;-87
2022/08/20 02:48:14;;;;;;;25.70;14.23;;;;;;;18.59;100.00;96189.44;5055726;28;20185;-87
2022/08/20 02:50:43;;;;;;;28.45;12.85;;;;;;;18.54;100.00;96186.63;5055440;28;20182;-86
2022/08/20 02:53:10;;;;;;;26.17;12.68;;;;;;;18.46;100.00;96194.97;5055352;28;20278;-87
2022/08/20 02:55:37;;;;;;;25.80;13.65;;;;;;;18.53;100.00;96193.00;5055538;28;20307;-87
2022/08/20 02:58:03;;;;;;;23.15;12.98;;;;;;;18.45;100.00;96196.81;5055351;28;20201;-87
2022/08/20 03:00:32;;;;;;;27.75;13.25;;;;;;;18.59;100.00;96203.59;5055324;28;20215;-88
2022/08/20 03:02:59;;;;;;;27.70;12.27;;;;;;;18.40;100.00;96196.66;5055183;28;20221;-88
2022/08/20 03:05:27;;;;;;;22.02;10.90;;;;;;;18.45;100.00;96199.47;5055397;28;20241;-88
2022/08/20 03:07:55;;;;;;;26.05;11.45;;;;;;;18.43;100.00;96198.06;5054837;28;20272;-88
2022/08/20 03:10:23;;;;;;;20.88;11.70;;;;;;;18.50;100.00;96190.81;5055377;28;20201;-88
2022/08/20 03:12:49;;;;;;;20.35;11.10;;;;;;;18.43;100.00;96196.22;5055489;28;20317;-88
2022/08/20 03:15:16;;;;;;;22.70;11.43;;;;;;;18.47;100.00;96191.25;5055310;28;20312;-87
2022/08/20 03:17:42;;;;;;;21.60;10.98;;;;;;;18.52;100.00;96205.53;5055335;28;20610;-88
2022/08/20 03:20:10;;;;;;;21.60;11.45;;;;;;;18.60;100.00;96202.56;5055108;28;20252;-86
2022/08/20 03:22:38;;;;;;;20.40;10.75;;;;;;;18.64;100.00;96195.72;5055034;28;20328;-86
2022/08/20 03:25:06;;;;;;;19.85;10.88;;;;;;;18.60;100.00;96202.56;5055100;28;20221;-87
2022/08/20 03:27:33;;;;;;;18.00;10.85;;;;;;;18.51;100.00;96203.09;5054745;28;20597;-87
2022/08/20 03:30:00;;;;;;;18.73;10.57;;;;;;;18.54;100.00;96199.97;5055037;28;20205;-86
2022/08/20 03:32:26;;;;;;;18.52;9.88;;;;;;;18.56;100.00;96206.72;5054957;28;20644;-87
2022/08/20 03:34:53;;;;;;;18.15;9.90;;;;;;;18.51;100.00;96198.56;5054588;28;20217;-86
2022/08/20 03:37:19;;;;;;;19.95;10.30;;;;;;;18.49;100.00;96208.66;5054498;28;20202;-86
2022/08/20 03:39:47;;;;;;;16.65;9.38;;;;;;;18.56;100.00;96209.38;5054885;28;20580;-86
2022/08/20 03:42:14;;;;;;;17.83;9.23;;;;;;;18.41;100.00;96205.50;5054605;28;20197;-87
2022/08/20 03:44:40;;;;;;;19.48;9.68;;;;;;;18.41;100.00;96206.31;5054791;28;20224;-87
2022/08/20 03:47:08;;;;;;;20.52;9.38;;;;;;;18.39;100.00;96205.72;5054603;28;20240;-87
2022/08/20 03:49:35;;;;;;;15.27;8.70;;;;;;;18.36;100.00;96213.38;5054034;28;20240;-87
2022/08/20 03:52:02;;;;;;;16.92;9.35;;;;;;;18.32;100.00;96208.69;5054360;28;20288;-86
2022/08/20 03:54:29;;;;;;;17.13;9.20;;;;;;;18.27;100.00;96211.25;5054064;28;20225;-87
2022/08/20 03:56:57;;;;;;;16.80;9.27;;;;;;;18.31;100.00;96223.88;5053351;28;20284;-87
2022/08/20 03:59:24;;;;;;;15.95;8.18;;;;;;;18.22;100.00;96219.91;5054540;28;20364;-86
2022/08/20 04:01:51;;;;;;;14.80;9.02;;;;;;;18.23;100.00;96228.72;5055293;28;20670;-86
2022/08/20 04:04:19;;;;;;;20.50;9.40;;;;;;;18.18;100.00;96223.25;5054509;28;20666;-87
2022/08/20 04:06:46;;;;;;;16.40;9.00;;;;;;;18.17;100.00;96234.94;5054532;28;20205;-86
2022/08/20 04:09:13;;;;;;;15.07;8.52;;;;;;;18.12;100.00;96232.09;5054221;28;20201;-86
2022/08/20 04:11:39;;;;;;;16.00;8.43;;;;;;;18.09;100.00;96237.91;5053933;28;20207;-87
2022/08/20 04:14:07;;;;;;;18.30;8.45;;;;;;;18.15;100.00;96235.16;5054116;28;20733;-86
2022/08/20 04:16:34;;;;;;;15.57;8.68;;;;;;;18.07;100.00;96231.97;5054000;28;20235;-86
2022/08/20 04:19:02;;;;;;;13.63;7.93;;;;;;;18.07;100.00;96243.44;5053701;28;20285;-86
2022/08/20 04:21:28;;;;;;;16.67;8.18;;;;;;;18.08;100.00;96244.25;5054412;28;20198;-87
2022/08/20 04:23:55;;;;;;;14.63;7.82;;;;;;;17.98;100.00;96239.44;5053934;28;20203;-87
2022/08/20 04:26:21;;;;;;;14.27;7.78;;;;;;;17.98;100.00;96243.97;5054049;28;20225;-87
2022/08/20 04:28:48;;;;;;;14.88;7.90;;;;;;;17.94;100.00;96242.78;5054009;28;20628;-86
2022/08/20 04:31:17;;;;;;;16.60;7.70;;;;;;;18.04;100.00;96237.75;5053823;28;20288;-87
2022/08/20 04:33:43;;;;;;;13.10;7.70;;;;;;;17.92;100.00;96247.50;5053526;28;20248;-87
2022/08/20 04:36:10;;;;;;;16.30;8.50;;;;;;;17.88;100.00;96249.00;5053412;28;20223;-87
2022/08/20 04:38:36;;;;;;;15.95;7.32;;;;;;;17.98;100.00;96254.63;5053560;28;20280;-87
2022/08/20 04:41:02;;;;;;;17.48;8.10;;;;;;;17.99;100.00;96258.94;5053657;28;20662;-87
2022/08/20 04:43:32;;;;;;;17.80;8.15;;;;;;;18.04;100.00;96265.22;5053487;28;20204;-86
2022/08/20 04:46:00;;;;;;;17.67;7.65;;;;;;;18.03;100.00;96265.44;5053582;28;20217;-86
2022/08/20 04:48:29;;;;;;;13.90;7.50;;;;;;;18.12;100.00;96256.91;5053487;28;20207;-86
2022/08/20 04:50:56;;;;;;;12.57;7.43;;;;;;;18.08;100.00;96260.25;5053596;28;20561;-86
2022/08/20 04:53:26;;;;;;;16.88;8.18;;;;;;;18.10;100.00;96260.84;5053315;28;20632;-86
2022/08/20 04:55:54;;;;;;;13.00;7.43;;;;;;;18.09;100.00;96259.25;5053479;28;20279;-87
2022/08/20 04:58:25;;;;;;;16.27;7.93;;;;;;;18.12;100.00;96264.13;5053135;28;20208;-87
2022/08/20 05:00:54;;;;;;;14.80;7.88;;;;;;;18.07;100.00;96261.28;5053733;28;20630;-86
2022/08/20 05:03:21;;;;;;;14.90;8.38;;;;;;;18.06;100.00;96270.31;5053319;28;20560;-86
2022/08/20 05:05:49;;;;;;;15.23;7.80;;;;;;;18.06;100.00;96260.50;5053524;28;20225;-86
2022/08/20 05:08:18;;;;;;;14.10;8.30;;;;;;;18.12;100.00;96266.78;5052999;28;20205;-87
2022/08/20 05:10:45;;;;;;;14.60;8.25;;;;;;;18.08;100.00;96271.72;5053210;28;20208;-86
2022/08/20 05:13:12;;;;;;;14.13;7.50;;;;;;;18.08;100.00;96270.94;5052745;28;20248;-87
2022/08/20 05:15:39;;;;;;;13.32;8.10;;;;;;;18.11;100.00;96267.81;5053099;28;20228;-86
2022/08/20 05:18:07;;;;;;;14.68;8.30;;;;;;;18.20;100.00;96263.84;5052743;28;20200;-86
2022/08/20 05:20:38;;;;;;;13.45;7.65;;;;;;;18.12;100.00;96282.78;5052599;28;20201;-87
2022/08/20 05:23:09;;;;;;;11.90;7.32;;;;;;;18.16;100.00;96279.44;5053185;28;20193;-87
2022/08/20 05:25:37;;;;;;;13.85;7.50;;;;;;;18.08;100.00;96284.28;5052744;28;20312;-87
2022/08/20 05:28:08;;;;;;;17.98;7.68;;;;;;;18.27;100.00;96291.28;5052836;28;20221;-86
2022/08/20 05:30:35;;;;;;;13.48;7.68;;;;;;;18.33;100.00;96291.19;5053618;28;20219;-87
2022/08/20 05:33:04;;;;;;;18.67;7.90;;;;;;;18.41;100.00;96293.56;5054174;28;20205;-86
2022/08/20 05:35:33;;;;;;;14.80;8.48;;;;;;;18.44;100.00;96301.94;5052961;28;20311;-87
2022/08/20 05:38:00;;;;;;;12.63;7.43;;;;;;;18.51;100.00;96301.84;5054200;28;20207;-86
2022/08/20 05:40:28;;;;;;;14.70;8.00;;;;;;;18.57;100.00;96299.09;5053994;28;20205;-86
2022/08/20 05:42:55;;;;;;;12.98;6.78;;;;;;;18.46;100.00;96304.38;5051992;28;20201;-86
2022/08/20 05:45:21;;;;;;;13.57;7.28;;;;;;;18.56;100.00;96302.81;5052217;28;20220;-86
2022/08/20 05:47:48;;;;;;;11.52;7.43;;;;;;;18.63;100.00;96302.72;5055770;28;20201;-86
2022/08/20 05:50:17;;;;;;;19.45;7.97;;;;;;;18.74;100.00;96301.97;5052796;28;20302;-87
2022/08/20 05:52:44;;;;;;;13.93;7.40;;;;;;;18.68;100.00;96297.53;5052768;28;20381;-87
2022/08/20 05:55:13;;;;;;;12.73;7.22;;;;;;;18.87;100.00;96305.25;5052426;28;20235;-87
2022/08/20 05:57:42;;;;;;;12.45;7.43;;;;;;;18.92;100.00;96296.59;5052964;28;20201;-87
2022/08/20 06:00:12;;;;;;;11.85;7.32;;;;;;;18.99;100.00;96303.44;5052482;28;20204;-87
2022/08/20 06:05:24;;;;;;;13.25;6.85;;;;;;;19.01;100.00;96298.69;5053007;28;20224;-87
2022/08/20 06:07:52;;;;;;;11.50;6.82;;;;;;;19.09;100.00;96304.59;5052776;28;20201;-87
2022/08/20 06:10:19;;;;;;;17.02;7.05;;;;;;;19.05;100.00;96308.72;5052729;28;20204;-87
2022/08/20 06:12:47;;;;;;;12.73;6.53;;;;;;;19.20;100.00;96311.00;5052079;28;20204;-87
2022/08/20 06:15:13;;;;;;;13.65;6.88;;;;;;;19.09;100.00;96306.41;5052224;28;20233;-87
2022/08/20 06:17:40;;;;;;;11.98;6.28;;;;;;;19.09;100.00;96309.09;5052186;28;20201;-87
2022/08/20 06:20:09;;;;;;;13.13;6.55;;;;;;;19.25;100.00;96311.13;5053815;28;20192;-87
2022/08/20 06:22:36;;;;;;;15.18;7.07;;;;;;;19.14;100.00;96303.88;5056181;28;20197;-86
2022/08/20 06:25:05;;;;;;;9.60;6.20;;;;;;;19.25;100.00;96309.25;5056156;28;20307;-86
2022/08/20 06:27:31;;;;;;;13.43;6.35;;;;;;;19.16;100.00;96309.81;5055838;28;20193;-87
2022/08/20 06:30:00;;;;;;;17.92;6.60;;;;;;;19.45;100.00;96309.78;5055845;28;20289;-88
2022/08/20 06:32:29;;;;;;;12.80;6.43;;;;;;;19.30;100.00;96313.94;5055673;28;20190;-88
2022/08/20 06:34:55;;;;;;;12.23;6.55;;;;;;;19.26;100.00;96310.09;5055927;28;20227;-88
2022/08/20 06:37:26;;;;;;;11.52;6.28;;;;;;;19.28;100.00;96310.66;5055898;28;20569;-86
2022/08/20 06:39:53;;;;;;;10.38;5.75;;;;;;;19.22;100.00;96312.41;5055857;28;20633;-87
2022/08/20 06:42:21;;;;;;;9.50;5.35;;;;;;;19.25;100.00;96319.16;5056254;28;20561;-86
2022/08/20 06:44:50;;;;;;;9.63;6.18;;;;;;;19.39;100.00;96305.34;5055457;28;20597;-87
2022/08/20 06:47:20;;;;;;;8.75;5.70;;;;;;;19.40;100.00;96316.84;5055754;28;20623;-87
2022/08/20 06:49:48;;;;;;;15.43;5.63;;;;;;;19.50;100.00;96315.25;5056133;28;20189;-86
2022/08/20 06:52:15;;;;;;;11.00;5.88;;;;;;;19.33;100.00;96318.81;5054755;28;20209;-86
2022/08/20 06:54:42;;;;;;;9.52;5.25;;;;;;;19.43;100.00;96306.50;5055308;28;20229;-86
2022/08/20 06:57:09;;;;;;;10.73;6.07;;;;;;;19.51;100.00;96311.50;5055706;28;20204;-85
2022/08/20 06:59:36;;;;;;;9.57;6.10;;;;;;;19.45;100.00;96309.78;5055012;28;20236;-86
2022/08/20 07:02:03;;;;;;;12.07;5.60;;;;;;;19.49;100.00;96310.13;5054845;28;20205;-86
2022/08/20 07:04:31;;;;;;;8.52;5.35;;;;;;;19.65;100.00;96312.94;5055595;28;20589;-86
2022/08/20 07:06:58;;;;;;;10.20;6.15;;;;;;;19.57;100.00;96314.06;5055530;28;20295;-86
2022/08/20 07:09:27;;;;;;;8.23;5.35;;;;;;;19.79;100.00;96317.84;5055104;28;20631;-87
2022/08/20 07:11:53;;;;;;;8.90;5.82;;;;;;;19.83;100.00;96319.00;5055370;28;20545;-87
2022/08/20 07:14:21;;;;;;;9.35;5.75;;;;;;;19.96;100.00;96308.13;5055735;28;20621;-87
2022/08/20 07:16:48;;;;;;;8.45;5.03;;;;;;;19.93;100.00;96313.91;5055376;28;20650;-85
2022/08/20 07:19:15;;;;;;;9.40;5.47;;;;;;;19.95;100.00;96319.06;5054879;28;20647;-87
2022/08/20 07:21:43;;;;;;;8.90;5.30;;;;;;;20.05;100.00;96317.41;5054973;28;20190;-86
2022/08/20 07:24:11;;;;;;;7.45;4.97;;;;;;;19.97;100.00;96324.97;5054996;28;20193;-86
2022/08/20 07:26:37;;;;;;;7.40;4.60;;;;;;;20.02;100.00;96317.91;5054827;28;20209;-86
2022/08/20 07:29:04;;;;;;;7.47;4.78;;;;;;;20.13;100.00;96322.41;5054783;28;20554;-86
2022/08/20 07:34:15;;;;;;;12.40;5.25;;;;;;;20.24;100.00;96324.28;5054458;28;20227;-86
2022/08/20 07:36:43;;;;;;;7.97;4.80;;;;;;;20.09;100.00;96326.59;5054642;28;20236;-86
2022/08/20 07:39:09;;;;;;;7.88;4.65;;;;;;;20.23;100.00;96325.31;5054536;28;20205;-86
2022/08/20 07:41:36;;;;;;;9.40;5.13;;;;;;;20.13;100.00;96326.97;5054599;28;20205;-86
2022/08/20 07:44:03;;;;;;;7.25;4.72;;;;;;;20.17;100.00;96328.13;5054979;28;20223;-86
2022/08/20 07:46:31;;;;;;;7.00;4.35;;;;;;;20.25;100.00;96323.19;5054351;28;20247;-86
2022/08/20 07:49:08;;;;;;;9.50;4.20;;;;;;;20.38;100.00;96333.69;5054466;28;20197;-86
2022/08/20 07:51:35;;;;;;;8.88;4.63;;;;;;;20.15;100.00;96332.88;5054534;28;20638;-86
2022/08/20 07:54:04;;;;;;;9.65;4.55;;;;;;;20.37;100.00;96332.84;5054216;28;20224;-86
2022/08/20 07:56:30;;;;;;;7.93;4.68;;;;;;;20.33;100.00;96334.38;5053939;28;20255;-86
2022/08/20 07:59:00;;;;;;;9.43;4.50;;;;;;;20.29;100.00;96335.09;5054029;28;20654;-86
2022/08/20 08:01:29;;;;;;;9.15;4.60;;;;;;;20.54;100.00;96339.09;5053958;28;20281;-86
2022/08/20 08:03:56;;;;;;;6.10;4.00;;;;;;;20.47;100.00;96337.63;5054306;28;20550;-86
2022/08/20 08:06:23;;;;;;;8.13;4.28;;;;;;;20.47;100.00;96342.97;5054203;28;20257;-86
2022/08/20 08:08:50;;;;;;;8.43;4.28;;;;;;;20.50;100.00;96345.19;5054104;28;20196;-87
2022/08/20 08:11:18;;;;;;;10.10;4.05;;;;;;;20.49;100.00;96346.22;5053703;28;20208;-86
2022/08/20 08:13:46;;;;;;;9.95;3.75;;;;;;;20.45;100.00;96347.75;5054104;28;20201;-86
2022/08/20 08:16:14;;;;;;;6.65;4.10;;;;;;;20.63;100.00;96344.91;5053994;28;20588;-86
2022/08/20 08:18:44;;;;;;;7.63;3.95;;;;;;;20.60;100.00;96353.44;5053925;28;20700;-86
2022/08/20 08:21:12;;;;;;;7.68;3.70;;;;;;;20.49;100.00;96344.38;5055447;28;20201;-86
2022/08/20 08:23:39;;;;;;;6.78;4.28;;;;;;;20.53;100.00;96352.72;5054727;28;20205;-86
2022/08/20 08:26:06;;;;;;;6.55;4.25;;;;;;;20.35;100.00;96353.72;5053910;28;20287;-87
2022/08/20 08:28:35;;;;;;;6.68;4.38;;;;;;;20.49;100.00;96351.56;5053526;28;20207;-87
2022/08/20 08:31:02;;;;;;;8.68;4.15;;;;;;;20.50;100.00;96353.22;5053658;28;20247;-87
2022/08/20 08:33:32;;;;;;;6.47;4.00;;;;;;;20.54;100.00;96349.00;5053611;28;20197;-86
2022/08/20 08:36:02;;;;;;;8.43;4.05;;;;;;;20.69;100.00;96352.03;5053480;28;20229;-87
2022/08/20 08:38:29;;;;;;;7.97;4.07;;;;;;;20.74;100.00;96347.59;5053391;28;20209;-87
2022/08/20 08:40:58;;;;;;;6.05;4.20;;;;;;;20.85;100.00;96342.22;5053224;28;20205;-87
2022/08/20 08:43:27;;;;;;;7.72;4.00;;;;;;;20.77;100.00;96357.84;5052333;28;20207;-87
2022/08/20 08:46:00;;;;;;;7.13;4.20;;;;;;;20.83;100.00;96355.03;5053465;28;20239;-87
2022/08/20 08:48:35;;;;;;;9.65;3.85;;;;;;;20.97;100.00;96356.38;5053355;28;20573;-86
2022/08/20 08:51:03;;;;;;;8.00;4.07;;;;;;;21.00;100.00;96358.59;5053496;28;20197;-87
2022/08/20 08:53:37;;;;;;;5.75;3.90;;;;;;;21.13;100.00;96358.31;5053338;28;20288;-87
2022/08/20 08:56:04;;;;;;;5.72;3.92;;;;;;;21.20;100.00;96356.28;5052767;28;20229;-86
2022/08/20 08:58:32;;;;;;;7.93;4.53;;;;;;;21.27;100.00;96356.16;5053197;28;20643;-87
2022/08/20 09:01:03;;;;;;;8.45;4.35;;;;;;;21.50;100.00;96356.88;5053421;28;20204;-87
2022/08/20 09:03:33;;;;;;;5.90;4.32;;;;;;;21.63;100.00;96357.38;5053285;28;20189;-86
2022/08/20 09:06:02;;;;;;;7.50;4.78;;;;;;;21.79;100.00;96351.25;5053302;28;20221;-86
2022/08/20 09:08:32;;;;;;;6.60;4.15;;;;;;;21.69;100.00;96351.06;5052929;28;20215;-87
2022/08/20 09:11:03;;;;;;;7.32;4.18;;;;;;;21.93;100.00;96354.41;5053228;28;20182;-87
2022/08/20 09:13:30;;;;;;;8.07;4.65;;;;;;;22.00;100.00;96361.22;5053005;28;20178;-87
2022/08/20 09:15:56;;;;;;;6.50;4.60;;;;;;;22.12;100.00;96357.41;5052774;28;20315;-86
2022/08/20 09:18:24;;;;;;;7.00;4.38;;;;;;;22.41;100.00;96358.13;5052838;28;20200;-87
2022/08/20 09:20:51;;;;;;;6.30;4.47;;;;;;;22.04;99.54;96361.56;5052968;28;20197;-86
2022/08/20 09:23:17;;;;;;;8.55;4.20;;;;;;;22.10;100.00;96370.25;5053086;28;20603;-86
2022/08/20 09:25:44;;;;;;;9.85;4.30;;;;;;;22.01;100.00;96367.41;5052948;28;20221;-87
2022/08/20 09:28:13;;;;;;;6.65;4.28;;;;;;;21.98;100.00;96373.25;5053634;28;20212;-86
2022/08/20 09:30:44;;;;;;;5.97;4.45;;;;;;;22.14;100.00;96366.03;5053477;28;20563;-86
2022/08/20 09:33:16;;;;;;;5.93;4.20;;;;;;;22.36;100.00;96356.16;5052662;28;20606;-86
2022/08/20 09:36:39;;;;;;;7.05;4.47;;;;;;;22.65;100.00;96367.59;5053091;28;20307;-86
2022/08/20 09:39:08;;;;;;;8.52;4.72;;;;;;;22.66;100.00;96353.09;5050254;28;20693;-87
2022/08/20 09:42:16;;;;;;;7.13;4.57;;;;;;;22.74;100.00;96353.50;5053125;28;20211;-87
2022/08/20 09:44:48;;;;;;;7.93;4.38;;;;;;;22.79;100.00;96353.56;5030971;28;20263;-88
2022/08/20 09:47:47;;;;;;;7.43;4.65;;;;;;;22.82;98.55;96350.34;5030723;28;20232;-86
2022/08/20 09:50:50;;;;;;;10.55;5.25;;;;;;;22.96;94.33;96340.84;5031042;28;20206;-87
2022/08/20 09:53:27;;;;;;;6.60;4.30;;;;;;;23.16;96.88;96346.50;5029640;28;20205;-86
2022/08/20 09:55:57;;;;;;;8.02;4.60;;;;;;;23.18;96.66;96344.38;5033145;28;20312;-87
2022/08/20 09:58:40;;;;;;;7.85;4.60;;;;;;;23.23;97.30;96341.72;5034687;28;20252;-86
2022/08/20 10:02:19;;;;;;;6.80;4.70;;;;;;;23.05;95.17;96336.69;5036338;28;20289;-86
2022/08/20 10:05:38;;;;;;;7.93;4.45;;;;;;;23.02;94.96;96335.31;5056330;28;20307;-86
2022/08/20 10:11:38;;;;;;;7.03;4.43;;;;;;;23.08;95.63;96328.16;5055407;28;20576;-86
2022/08/20 10:17:23;;;;;;;7.57;4.25;;;;;;;23.09;98.73;96327.06;5030028;28;20670;-86
2022/08/20 10:19:49;;;;;;;7.45;4.47;;;;;;;23.18;93.43;96336.31;5057077;28;20296;-86
2022/08/20 10:22:32;;;;;;;8.70;4.30;;;;;;;23.10;95.69;96328.69;5056808;28;20566;-86
2022/08/20 10:25:00;;;;;;;5.30;3.90;;;;;;;23.26;94.08;96327.81;5056439;28;20221;-87
2022/08/20 10:37:28;;;;;;;6.80;3.95;;;;;;;23.51;88.02;96326.97;5053151;28;20208;-85
2022/08/20 10:40:27;;;;;;;7.38;4.15;;;;;;;24.02;87.38;96329.88;5055960;28;20207;-86
2022/08/20 10:48:45;;;;;;;6.20;3.45;;;;;;;24.34;84.23;96321.75;5028365;28;20221;-72
2022/08/20 10:51:11;;;;;;;5.53;3.53;;;;;;;24.10;86.12;96312.44;5031089;28;20297;-72
2022/08/20 10:53:38;;;;;;;4.13;3.00;;;;;;;24.02;92.89;96321.00;5113840;22;20228;-67
2022/08/20 10:56:05;;;;;;;11.77;4.50;;;;;;;24.15;88.63;96313.28;5070908;28;20219;-68
2022/08/20 10:58:31;;;;;;;6.32;3.00;;;;;;;24.40;84.56;96309.97;5070728;28;20206;-68
2022/08/20 11:00:58;;;;;;;4.57;2.60;;;;;;;24.57;81.02;96300.63;5070784;28;20212;-69
2022/08/20 11:03:24;;;;;;;3.63;2.40;;;;;;;24.96;79.05;96300.00;5070554;28;20216;-69
2022/08/20 11:05:52;;;;;;;3.45;2.50;;;;;;;24.68;79.90;96294.19;5069908;28;20232;-69
2022/08/20 11:08:19;;;;;;;3.17;2.30;;;;;;;24.72;79.15;96300.72;5059169;28;20212;-68
2022/08/20 11:10:45;;;;;;;5.43;1.80;;;;;;;24.62;76.71;96298.75;5057992;28;21283;-68
2022/08/20 11:13:12;;;;;;;3.85;1.60;;;;;;;24.46;76.43;96298.16;5069304;28;20591;-68
2022/08/20 11:15:41;;;;;;;2.53;1.90;;;;;;;24.70;77.00;96298.25;5069463;28;20224;-69
2022/08/20 11:18:09;;;;;;;2.00;1.70;;;;;;;24.75;78.10;96294.78;5069775;28;20208;-69
2022/08/20 11:20:36;;;;;;;2.45;1.50;;;;;;;24.56;73.15;96305.19;5069609;28;20224;-69
2022/08/20 11:23:04;;;;;;;1.90;1.60;;;;;;;24.68;74.34;96305.81;5069532;28;20309;-69
2022/08/20 11:25:31;;;;;;;1.90;1.60;;;;;;;24.59;75.22;96307.38;5070147;28;20193;-69
2022/08/20 11:27:58;;;;;;;1.73;1.50;;;;;;;24.22;72.54;96304.97;5069881;28;20204;-69
2022/08/20 11:30:27;;;;;;;1.52;1.38;;;;;;;24.58;74.46;96311.16;5069877;28;20197;-68
2022/08/20 11:32:54;;;;;;;2.25;1.60;;;;;;;24.57;76.16;96306.81;5068468;28;20221;-69
2022/08/20 11:35:22;;;;;;;2.72;1.75;;;;;;;24.55;77.31;96304.66;5063302;28;21129;-69
2022/08/20 11:37:49;;;;;;;2.05;1.60;;;;;;;24.46;75.79;96308.91;5057578;28;20281;-69
2022/08/20 11:40:17;;;;;;;2.20;1.70;;;;;;;24.46;73.69;96307.03;5055491;28;20193;-69
2022/08/20 11:42:46;;;;;;;2.22;1.63;;;;;;;24.09;74.65;96311.59;5056664;28;20224;-68
2022/08/20 11:45:13;;;;;;;2.58;2.03;;;;;;;24.41;76.92;96311.59;5069760;28;20193;-69
2022/08/20 11:47:40;;;;;;;2.47;1.90;;;;;;;24.17;73.99;96307.63;5070084;28;20215;-68
2022/08/20 11:50:10;;;;;;;1.90;1.70;;;;;;;24.26;74.93;96306.06;5069463;28;20197;-69
2022/08/20 11:52:37;;;;;;;3.08;1.90;;;;;;;24.21;76.21;96306.84;5069364;28;20235;-69
2022/08/20 11:55:05;;;;;;;2.95;1.85;;;;;;;24.27;78.57;96305.00;5065532;28;20209;-69
2022/08/20 11:57:37;;;;;;;2.30;1.70;;;;;;;24.08;79.69;96319.94;5056527;28;20628;-69